Alor Star, Malaysia

11:23 AM MYT on July 31, 2014 (GMT +0800)
Sultan Abdul Halim (WMKA) Elev 16 ft | 6.19 °N, 100.40 °E | Change Station

Current weather conditions updated 23 minutes ago

Light Rain
Light Rain
81 °F
Feels Like 87 °F
N
1
Wind Variable Wind from SE

Today is forecast to be nearly the same temperature as yesterday. Scattered thunderstorms possible.

Today
High -- | Low -- °F
--% Chance of Precip.
Yesterday
High -- | Low -- °F
Precip. -- in
7:13 AM 7:36 PM
Waxing Crescent, 15% visible
Pressure 29.86 in
Visibility 6.2 miles
Clouds Few 800 ft
Few 1700 ft
Scattered Clouds 3000 ft
Mostly Cloudy 26000 ft
Heat Index 87 °F
Dew Point 77 °F
Humidity 89%
Rainfall 0.00 in
Snow Depth Not available.
UV 6 out of 12
Pollen Not available.
Air Quality Not available.
Flu Activity Not available.
METAR WMKA 310300Z 14001KT 9999 -RA FEW008 FEW017CB SCT030 BKN260 27/25 Q1011

More Conditions Fewer Conditions

Pressure 29.86 in
Visibility 6.2 miles
Clouds Few 800 ft
Few 1700 ft
Scattered Clouds 3000 ft
Mostly Cloudy 26000 ft
Heat Index 87 °F
Dew Point 77 °F
Humidity 89%
Rainfall 0.00 in
Snow Depth Not available.
UV 6 out of 12
Pollen Not available.
Air Quality Not available.
Flu Activity Not available.
METAR WMKA 310300Z 14001KT 9999 -RA FEW008 FEW017CB SCT030 BKN260 27/25 Q1011

More Conditions Fewer Conditions

10-Day Weather Forecast

Almanac

Astronomy

Jul. 31, 2014 Rise Set
Actual Time 7:13 AM MYT 7:36 PM MYT
Civil Twilight 6:51 AM MYT 7:58 PM MYT
Nautical Twilight 6:25 AM MYT 8:24 PM MYT
Astronomical Twilight 5:59 AM MYT 8:49 PM MYT
Moon 10:14 AM MYT 10:34 PM MYT
Length of Visible Light 13h 07m
Length of Day
12h 23m
Tomorrow will be 0m 15s shorter.
Waxing Crescent, 15% of the Moon is Illuminated
Jul 30
Waxing Crescent
Aug 3
First Quarter
Aug 10
Full
Aug 17
Last Quarter
Aug 25
New

Yesterday's Extremes

Country Highs Country Lows

Community

WunderPhotos

Upload Photos

1,739,286 photos uploaded!

Nearby

Snow Depth

Not available.

Earthquake Activity

City Distance Mag. Time & Date
No recent earthquake activity has been reported nearby.
Minimum magnitude displayed is 2.5.

Coastal Water Temperatures

Place Temperature
No Stations Reporting

Nearby Weather Stations

There are no personal weather stations in this area.